Latest Weather Observations for Falls Creek

IDV60801

Issued at 5:31 pm EST Friday 4 September 2015 (issued every 30 minutes, with the page automatically refreshed every 10 minutes)

About weather observations | Map of weather stations | Latest weather observations for VIC | Other Formats
Station Details ID: 083084 Name: FALLS CREEK Lat: -36.87 Lon: 147.28 Height: 1765.0 m
Data from the previous 72 hours. | See also: Recent months at Falls Creek
Date/Time
EST
Temp
°C
App
Temp
°C
Dew
Point
Rel
Hum
%
Delta-T
°C
Wind Press
QNH
hPa
Press
MSL
hPa
Rain
since 9 am
mm
Dir
 
Spd
km/h
Gust
km/h
Spd
kts
Gust
kts
04/05:30pm 1.6 -2.2 1.6 100 0.0 NNW 11 17 6 9 1020.8 1021.4 0.0
04/05:00pm 1.9 -1.9 1.9 100 0.0 NNW 11 17 6 9 1020.7 1021.2 0.0
04/04:30pm 2.2 -1.9 2.2 100 0.0 NNW 13 17 7 9 1020.5 1021.0 0.0
04/04:00pm 2.9 -0.7 2.9 100 0.0 NW 11 15 6 8 1020.5 1021.0 0.0
04/03:30pm 3.4 -0.1 3.4 100 0.0 NNW 11 17 6 9 1020.5 1021.0 0.0
04/03:00pm 3.0 -1.0 3.0 100 0.0 NNW 13 19 7 10 1020.5 1021.0 0.0
04/02:30pm 3.3 -0.6 3.3 100 0.0 NW 13 20 7 11 1020.5 1021.0 0.0
04/02:00pm 2.9 -1.8 2.9 100 0.0 NW 17 24 9 13 1020.3 1020.9 0.0
04/01:30pm 3.0 -1.3 3.0 100 0.0 NNW 15 20 8 11 1020.5 1021.0 0.0
04/01:00pm 3.0 -1.7 3.0 100 0.0 NNW 17 26 9 14 1020.6 1021.1 0.0
04/12:30pm 2.6 -2.2 2.6 100 0.0 NW 17 22 9 12 1020.9 1021.5 0.0
04/12:00pm 3.3 -1.8 3.3 100 0.0 NW 19 26 10 14 1021.2 1021.7 0.0
04/11:30am 2.4 -2.8 2.4 100 0.0 NNW 19 28 10 15 1021.3 1021.9 0.0
04/11:00am 1.9 -3.6 1.9 100 0.0 NNW 20 28 11 15 1021.2 1021.7 0.0
04/10:30am 1.6 -3.4 1.6 100 0.0 NW 17 26 9 14 1021.3 1021.9 0.0
04/10:00am 1.1 -4.3 1.1 100 0.0 NW 19 24 10 13 1021.3 1021.9 0.0
04/09:30am 1.2 -3.5 1.2 100 0.0 NNW 15 20 8 11 1021.3 1021.9 0.0
04/09:00am 0.9 -4.7 0.9 100 0.0 NNW 20 28 11 15 1021.2 1021.7 0.2
04/08:30am 1.3 -4.3 1.3 100 0.0 NNW 20 26 11 14 1021.1 1021.6 0.2
04/08:00am 0.5 -4.6 0.5 100 0.0 NW 17 26 9 14 1020.8 1021.4 0.2
04/07:30am 0.0 -4.8 0.0 100 0.0 NW 15 22 8 12 1020.6 1021.1 0.2
04/07:00am -0.6 -5.5 -0.6 100 0.0 NW 15 20 8 11 1020.2 1020.7 0.2
04/06:30am -0.8 -6.1 -0.8 100 0.0 NW 17 19 9 10 1020.0 1020.5 0.2
04/06:00am -0.6 -5.5 -0.6 100 0.0 NW 15 19 8 10 1019.9 1020.4 0.2
04/05:30am -0.4 -5.3 -0.4 100 0.0 NW 15 19 8 10 1019.5 1020.0 0.2
04/05:00am -0.5 -4.6 -0.5 100 0.0 NW 11 15 6 8 1019.4 1019.9 0.2
04/04:30am -0.1 -3.4 -0.1 100 0.0 NNW 7 7 4 4 1019.2 1019.6 0.2
04/04:00am -0.1 -2.1 -0.1 100 0.0 CALM 0 0 0 0 1019.2 1019.6 0.2
04/03:30am -0.6 -3.4 -0.6 100 0.0 SE 4 7 2 4 1019.2 1019.6 0.2
04/03:00am -0.7 -3.5 -0.7 100 0.0 S 4 7 2 4 1019.3 1019.7 0.2
04/02:30am -0.7 -4.5 -0.7 100 0.0 SE 9 13 5 7 1019.2 1019.6 0.2
04/02:00am -0.7 -4.1 -0.7 100 0.0 SSE 7 11 4 6 1019.3 1019.7 0.2
04/01:30am -0.9 -5.9 -0.9 100 0.0 S 15 20 8 11 1019.3 1019.7 0.2
04/01:00am -0.7 -7.3 -0.7 100 0.0 S 24 28 13 15 1019.0 1019.5 0.2
04/12:30am -0.3 -7.6 -0.3 100 0.0 SSE 28 35 15 19 1018.7 1019.1 0.2
04/12:00am -0.3 -7.6 -0.3 100 0.0 SSE 28 39 15 21 1018.7 1019.1 0.2
 
Date/Time
EST
Temp
°C
App
Temp
°C
Dew
Point
Rel
Hum
%
Delta-T
°C
Wind Press
QNH
hPa
Press
MSL
hPa
Rain
since 9 am
mm
Dir
 
Spd
km/h
Gust
km/h
Spd
kts
Gust
kts
03/11:30pm 0.1 -6.8 0.1 100 0.0 SSE 26 33 14 18 1018.6 1019.0 0.2
03/11:00pm 0.1 -6.8 0.1 100 0.0 S 26 32 14 17 1018.3 1018.8 0.2
03/10:30pm 0.2 -6.7 0.2 100 0.0 SSE 26 35 14 19 1018.4 1018.9 0.2
03/10:00pm 0.3 -6.6 0.3 100 0.0 SSE 26 41 14 22 1018.1 1018.5 0.2
03/09:30pm 0.5 -6.3 0.5 100 0.0 SSE 26 33 14 18 1017.6 1018.0 0.2
03/09:00pm 0.6 -7.6 0.6 100 0.0 S 33 46 18 25 1016.9 1017.3 0.2
03/08:30pm 0.8 -7.1 0.8 100 0.0 SSE 32 46 17 25 1016.4 1016.8 0.2
03/08:00pm 0.8 -5.6 0.8 100 0.0 SSE 24 32 13 17 1016.4 1016.8 0.2
03/07:30pm 0.8 -6.4 0.8 100 0.0 SSE 28 37 15 20 1015.9 1016.3 0.2
03/07:00pm 0.8 -8.1 0.8 100 0.0 S 37 46 20 25 1015.7 1016.0 0.2
03/06:30pm 0.7 -8.6 0.7 100 0.0 SSE 39 50 21 27 1015.1 1015.4 0.2
03/06:00pm 0.5 -9.8 0.5 100 0.0 S 44 56 24 30 1014.5 1014.8 0.2
03/05:39pm 0.5 -9.2 0.5 100 0.0 S 41 59 22 32 1013.9 1014.2 0.2
03/05:30pm 0.5 -8.8 0.5 100 0.0 SSE 39 52 21 28 1014.0 1014.3 0.2
03/05:00pm 0.5 -7.5 0.5 100 0.0 SSE 32 43 17 23 1013.7 1013.9 0.2
03/04:30pm 0.6 -8.7 0.6 100 0.0 SSE 39 57 21 31 1012.6 1012.8 0.2
03/04:11pm 0.5 -9.6 0.4 99 0.0 SSE 43 61 23 33 1012.4 1012.6 0.2
03/04:00pm 0.5 -10.2 0.4 99 0.0 SSE 46 59 25 32 1011.8 1011.9 0.2
03/03:30pm 0.5 -11.3 0.4 99 0.0 S 52 70 28 38 1011.1 1011.2 0.2
03/03:07pm 0.3 -11.1 0.3 100 0.0 S 50 69 27 37 1011.0 1011.1 0.2
03/03:00pm 0.3 -10.8 0.3 100 0.0 S 48 61 26 33 1010.7 1010.8 0.2
03/02:32pm 0.2 -12.6 0.1 99 0.0 S 57 76 31 41 1009.9 1010.0 0.2
03/02:30pm 0.2 -12.6 0.1 99 0.0 S 57 74 31 40 1009.9 1010.0 0.2
03/02:00pm -0.1 -11.6 -0.2 99 0.0 S 50 72 27 39 1009.4 1009.5 0.2
03/01:30pm -0.1 -10.9 -0.2 99 0.0 S 46 67 25 36 1009.8 1009.8 0.2
03/01:09pm -0.4 -10.6 -0.5 99 0.0 S 43 61 23 33 1009.5 1009.6 0.2
03/01:00pm -0.4 -11.2 -0.4 100 0.0 S 46 61 25 33 1009.2 1009.2 0.2
03/12:36pm -0.2 -12.1 -0.2 100 0.0 S 52 70 28 38 1009.2 1009.2 0.2
03/12:30pm -0.2 -12.5 -0.2 100 0.0 S 54 69 29 37 1008.3 1008.3 0.2
03/12:00pm 0.1 -10.6 0.1 100 0.0 S 46 67 25 36 1008.6 1008.6 0.2
03/11:30am -0.2 -12.1 -0.2 100 0.0 SSE 52 72 28 39 1008.2 1008.2 0.2
03/11:00am -0.3 -11.8 -0.3 100 0.0 SSE 50 72 27 39 1007.6 1007.6 0.2
03/10:30am 0.1 -12.1 0.1 100 0.0 S 54 72 29 39 1007.3 1007.2 0.2
03/10:07am 0.0 -11.5 0.0 100 0.0 SSE 50 70 27 38 1007.1 1007.1 0.2
03/10:00am -0.2 -11.3 -0.2 100 0.0 S 48 65 26 35 1007.0 1007.0 0.2
03/09:30am -0.3 -11.1 -0.3 100 0.0 S 46 67 25 36 1006.7 1006.6 0.2
03/09:11am -0.4 -13.1 -0.4 100 0.0 S 56 74 30 40 1006.3 1006.2 0.0
03/09:00am -0.6 -13.5 -0.6 100 0.0 S 57 70 31 38 1005.6 1005.5 5.2
03/08:38am -0.7 -13.0 -0.7 100 0.0 S 54 78 29 42 1004.9 1004.8 5.2
03/08:30am -0.8 -12.0 -0.8 100 0.0 S 48 63 26 34 1005.5 1005.4 5.0
03/08:23am -1.0 -13.0 -1.0 100 0.0 S 52 70 28 38 1005.2 1005.1 5.0
03/08:00am -0.8 -13.5 -0.8 100 0.0 S 56 69 30 37 1004.5 1004.4 4.8
03/07:30am -1.1 -13.5 -1.1 100 0.0 S 54 65 29 35 1004.4 1004.3 4.6
03/07:00am -0.6 -11.8 -0.6 100 0.0 S 48 61 26 33 1003.9 1003.8 4.2
03/06:30am 0.0 -10.3 0.0 100 0.0 SSE 44 54 24 29 1003.8 1003.6 4.0
03/06:00am 0.1 -9.7 0.1 100 0.0 SSE 41 54 22 29 1003.3 1003.1 3.8
03/05:30am -0.3 -7.6 -0.3 100 0.0 SSE 28 37 15 20 1003.6 1003.4 3.8
03/05:00am -0.4 -6.6 -0.4 100 0.0 SSE 22 32 12 17 1003.9 1003.8 3.8
03/04:30am -0.7 -7.0 -0.7 100 0.0 SE 22 32 12 17 1004.2 1004.0 3.6
03/04:00am -0.7 -6.0 -0.7 100 0.0 SE 17 24 9 13 1004.3 1004.1 3.2
03/03:30am -0.5 -6.2 -0.5 100 0.0 SE 19 24 10 13 1004.5 1004.4 2.6
03/03:00am -0.1 -5.3 -0.1 100 0.0 SE 17 20 9 11 1004.8 1004.6 1.4
03/02:30am 0.0 -3.7 0.0 100 0.0 SE 9 15 5 8 1005.0 1004.9 1.0
03/02:00am 0.0 -4.5 0.0 100 0.0 SE 13 17 7 9 1005.6 1005.5 1.0
03/01:30am -0.1 -4.9 -0.1 100 0.0 ESE 15 19 8 10 1005.8 1005.7 1.0
03/01:00am 0.0 -3.7 0.0 100 0.0 ESE 9 13 5 7 1006.4 1006.4 1.0
03/12:30am 0.2 -4.6 0.2 100 0.0 ENE 15 22 8 12 1006.8 1006.7 1.0
03/12:00am 0.2 -5.0 0.2 100 0.0 NNE 17 20 9 11 1007.3 1007.2 0.2
 
Date/Time
EST
Temp
°C
App
Temp
°C
Dew
Point
Rel
Hum
%
Delta-T
°C
Wind Press
QNH
hPa
Press
MSL
hPa
Rain
since 9 am
mm
Dir
 
Spd
km/h
Gust
km/h
Spd
kts
Gust
kts
02/11:30pm 0.1 -5.7 0.1 100 0.0 NNE 20 26 11 14 1007.7 1007.7 0.2
02/11:00pm -0.1 -4.2 -0.1 100 0.0 N 11 17 6 9 1008.1 1008.1 0.2
02/10:30pm 0.0 -5.2 -0.1 99 0.0 NNW 17 20 9 11 1008.6 1008.6 0.2
02/10:00pm 1.0 -4.2 -0.1 92 0.5 N 17 24 9 13 1008.6 1008.6 0.0
02/09:30pm 2.0 -3.4 -1.6 77 1.4 N 17 20 9 11 1008.8 1008.8 0.0
02/09:00pm 2.4 -3.6 -1.7 74 1.6 NNW 20 32 11 17 1008.9 1009.0 0.0
02/08:30pm 2.8 -3.3 -2.7 67 2.2 NNW 20 30 11 16 1009.2 1009.2 0.0
02/08:07pm 3.4 -4.3 -3.0 63 2.5 N 28 46 15 25 1008.9 1009.0 0.0
02/08:00pm 3.1 -3.0 -2.6 66 2.3 N 20 28 11 15 1009.2 1009.2 0.0
02/07:30pm 3.0 -2.5 -2.3 68 2.1 N 17 26 9 14 1009.4 1009.5 0.0
02/07:00pm 2.8 -2.8 -2.5 68 2.1 NNE 17 28 9 15 1009.2 1009.2 0.0
02/06:30pm 2.3 -3.2 -2.4 71 1.8 NNE 17 22 9 12 1009.4 1009.5 0.0
02/06:00pm 2.4 -2.1 -3.1 67 2.1 NNE 11 19 6 10 1009.5 1009.6 0.0
02/05:30pm 2.3 -1.0 -0.1 84 1.0 NNE 7 11 4 6 1009.8 1009.8 0.0
02/05:00pm 3.1 -1.4 0.0 80 1.3 N 13 17 7 9 1009.8 1009.8 0.0
02/04:30pm 3.5 -0.4 -1.4 70 2.0 NNE 9 19 5 10 1009.5 1009.6 0.0
02/04:00pm 3.6 -0.7 -1.5 69 2.1 NNW 11 17 6 9 1009.9 1010.0 0.0
02/03:30pm 4.6 -0.2 -2.3 61 2.8 NNW 13 19 7 10 1010.0 1010.1 0.0
02/03:00pm 4.0 -2.1 -3.7 57 3.0 NNW 19 26 10 14 1010.4 1010.5 0.0
02/02:30pm 4.0 -3.5 -4.2 55 3.1 N 26 35 14 19 1010.7 1010.8 0.0
02/02:00pm 4.1 -2.8 -6.5 46 3.8 NNW 22 32 12 17 1010.7 1010.8 0.0
02/01:30pm 4.5 -1.8 -6.1 46 3.9 NNW 19 28 10 15 1011.2 1011.3 0.0
02/01:00pm 4.8 -2.0 -9.0 36 4.7 NNW 20 28 11 15 1011.5 1011.7 0.0
02/12:30pm 4.7 -1.5 -9.4 35 5.0 NNW 17 24 9 13 1012.3 1012.4 0.0
02/12:00pm 4.0 -2.9 -10.8 33 5.0 NNW 20 28 11 15 1013.0 1013.2 0.0
02/11:30am 4.4 -2.8 -10.1 34 5.1 NNW 22 30 12 16 1013.3 1013.6 0.0
02/11:00am 4.4 -2.0 -12.0 29 5.4 NNW 17 24 9 13 1013.6 1013.8 0.0
02/10:30am 3.2 -2.7 -9.7 38 4.4 NNW 15 22 8 12 1013.8 1014.0 0.0
02/10:00am 3.9 -1.5 -13.4 27 5.5 NNW 11 17 6 9 1014.0 1014.3 0.0
02/09:30am 4.0 -2.2 -15.2 23 5.8 NW 15 20 8 11 1014.3 1014.5 0.0
02/09:00am 3.3 -3.1 -20.1 16 6.2 NNW 15 22 8 12 1014.6 1014.9 0.0
02/08:30am 2.7 -3.8 -22.1 14 6.1 NNW 15 20 8 11 1014.5 1014.8 0.0
02/08:00am 2.8 -3.7 -22.8 13 6.2 NNW 15 20 8 11 1014.5 1014.8 0.0
02/07:30am 2.5 -3.3 -23.1 13 6.1 NW 11 15 6 8 1014.2 1014.4 0.0
02/07:00am 1.8 -4.3 -21.3 16 5.7 NW 13 19 7 10 1014.2 1014.4 0.0
02/06:30am 1.6 -5.2 -20.8 17 5.6 NW 17 20 9 11 1014.2 1014.4 0.0
02/06:00am 1.8 -5.0 -20.6 17 5.6 NW 17 20 9 11 1014.0 1014.3 0.0
02/05:30am 1.2 -6.2 -20.4 18 5.4 WNW 20 22 11 12 1014.0 1014.3 0.0
02/05:00am 1.1 -6.0 -18.7 21 5.1 NW 19 22 10 12 1013.8 1014.0 0.0
02/04:30am 0.4 -6.6 -16.4 27 4.5 NW 19 22 10 12 1013.8 1014.0 0.0
02/04:00am -0.3 -7.6 -18.4 24 4.5 NW 20 26 11 14 1013.8 1014.0 0.0
02/03:30am 0.2 -7.1 -17.9 24 4.7 NW 20 26 11 14 1013.7 1013.9 0.0
02/03:00am 0.0 -8.1 -19.1 22 4.8 NW 24 28 13 15 1014.0 1014.3 0.0
02/02:30am -0.4 -8.3 -14.0 35 3.8 NW 24 30 13 16 1014.2 1014.4 0.0
02/02:00am 0.0 -7.2 -15.9 29 4.3 NW 20 24 11 13 1014.5 1014.8 0.0
02/01:30am 0.7 -7.0 -18.0 23 4.9 NW 22 28 12 15 1014.8 1015.0 0.0
02/01:00am 0.2 -7.8 -16.6 27 4.5 NW 24 32 13 17 1014.6 1014.9 0.0
02/12:30am -0.3 -7.9 -10.0 48 3.0 NW 24 30 13 16 1014.6 1014.9 0.0
02/12:00am -0.1 -7.6 -8.8 52 2.8 NW 24 28 13 15 1014.8 1015.0 0.0
 
Date/Time
EST
Temp
°C
App
Temp
°C
Dew
Point
Rel
Hum
%
Delta-T
°C
Wind Press
QNH
hPa
Press
MSL
hPa
Rain
since 9 am
mm
Dir
 
Spd
km/h
Gust
km/h
Spd
kts
Gust
kts
01/11:30pm 0.8 -6.4 -14.8 30 4.4 WNW 20 24 11 13 1014.9 1015.2 0.0
01/11:00pm 0.2 -6.6 -9.0 50 3.0 WNW 20 22 11 12 1014.9 1015.2 0.0
01/10:30pm -1.0 -6.5 -2.3 91 0.4 WNW 17 22 9 12 1014.9 1015.2 0.0
01/10:00pm -1.3 -5.2 -1.3 100 0.0 N 9 15 5 8 1015.0 1015.3 0.0
01/09:30pm -1.2 -5.4 -1.2 100 0.0 N 11 15 6 8 1015.0 1015.3 0.0
01/09:00pm -0.2 -4.4 -0.8 96 0.2 NW 11 13 6 7 1014.6 1014.9 0.0
01/08:30pm -1.3 -4.8 -1.3 100 0.0 NW 7 9 4 5 1014.5 1014.8 0.0
01/08:00pm -0.6 -3.8 -0.6 100 0.0 N 6 9 3 5 1014.2 1014.4 0.0
01/07:30pm -0.1 -4.2 -0.1 100 0.0 WNW 11 15 6 8 1014.2 1014.4 0.0
01/07:00pm 0.3 -2.4 0.2 99 0.0 NW 4 9 2 5 1013.9 1014.2 0.0
01/06:30pm 0.2 -2.9 0.2 100 0.0 NNW 6 7 3 4 1013.8 1014.0 0.0
01/06:00pm 0.6 -2.6 0.6 100 0.0 NNW 7 11 4 6 1013.8 1014.0 0.0

Other Formats:

Comma delimited format used in spreadsheet applications
http://www.bom.gov.au/fwo/IDV60801/IDV60801.94903.axf

JavaScript Object Notation format (JSON) in row-major order
http://www.bom.gov.au/fwo/IDV60801/IDV60801.94903.json